ADDS TAF Board (Experimental) INFO Settings
IDs: Format: Expanded Condensed

KLAX - Los Angeles Intl, CA, US

Issued at 1141 UTC 29 Aug 2016
Updated at 1440 UTC 29 Aug 2016
Time1353Z 29/15Z 29/16Z 29/17Z 29/18Z 29/19Z 29/20Z 29/21Z 29/22Z 29/23Z 30/00Z 30/01Z 30/02Z 30/03Z
Type OBS PRVL PRVL PRVL PRVL PRVL PRVL PRVL PRVL PRVL PRVL PRVL PRVL PRVL
VIS 7 >6 >6 >6 >6 >6 >6 >6 >6 >6 >6 >6 >6 >6
CIG -- -- -- -- -- -- -- -- -- -- -- -- -- --
Cover CLR SKC SKC SKC SKC SKC SKC SKC SKC SKC SKC SKC SKC SKC
FltCat VFR VFR VFR VFR VFR VFR VFR VFR VFR VFR VFR VFR VFR VFR
WX -- -- -- -- -- -- -- -- -- -- -- -- -- --
WDir VRB VRB VRB VRB VRB VRB 260 260 260 260 260 260 230 230
WSpd 3 3 3 3 3 3 14 14 14 14 14 14 8 8
WGst -- -- -- -- -- -- 22 22 22 22 22 22 -- --
R06/24
XWnd VRB VRB VRB VRB VRB VRB -1 -1 -1 -1 -1 -1 -4 -4
XGst -- -- -- -- -- -- -1 -1 -1 -1 -1 -1 -- --
HWnd VRB VRB VRB VRB VRB VRB -14 -14 -14 -14 -14 -14 -7 -7
HGst -- -- -- -- -- -- -22 -22 -22 -22 -22 -22 -- --
R07/25
XWnd VRB VRB VRB VRB VRB VRB -1 -1 -1 -1 -1 -1 -4 -4
XGst -- -- -- -- -- -- -1 -1 -1 -1 -1 -1 -- --
HWnd VRB VRB VRB VRB VRB VRB -14 -14 -14 -14 -14 -14 -7 -7
HGst -- -- -- -- -- -- -22 -22 -22 -22 -22 -22 -- --

Raw TAF
KLAX 291141Z 2912/3018 VRB03KT P6SM SKC
  FM292000 26014G22KT P6SM SKC
  FM300200 23008KT P6SM SKC
  FM300600 VRB03KT P6SM SKC
  FM301200 12005KT 4SM BR BKN007
  FM301700 23005KT P6SM SKC


Raw METAR
KLAX 291353Z VRB03KT 7SM CLR 19/17 A2996 RMK AO2 SLP144 T01940167
KLAX 291253Z 00000KT 10SM CLR 19/16 A2995 RMK AO2 SLP138 T01940161
KLAX 291153Z 34003KT 10SM CLR 19/16 A2994 RMK AO2 SLP137 T01940161 10206 20194 58009

METAR Board
Radar Display
Forecast Discussion

TAF Board Legend

Potential Impact
Threat None Slight Moderate High
Visibility (sm) ≥5.1 5.1>X≥3 3>X≥1 <1
Ceiling (100 ft) ≥30.1 30.1>X≥10 10>X≥5 <5
Wind Speed (kt) <10 10≤X<20 20≤X<30 ≥30
Wind Gust (kt) <15 15≤X<25 25≤X<35 ≥35
Weather No Wx Reported VCTS,-TS,-FZRA,SN TS,FZRA +TS,+FZRA,+SN